Current Conditions
Light Rain
Showers



Pressure
1006.92 (hPa) - 29.73 (inHG)
Visibility

4.3 (miles) - 7.0 (km)
   Temperature
18  °C
64°F
18  °C
Dewpoint
100  %
 Humidity
   Wind Speed
10  mph
9  kts
16  km/h
4.5  m/s
   Wind Direction
 190°
Due South
   Airport Data
EGTK
Location Oxford (Kidlington) 26 mi (41.83 km)
Metar :EGTK 191820Z 19009KT 7000 RA FEW009 SCT016 BKN031 18/18 Q1007
Fri 19th July 19:20 pm
   Raw Metar Info
Raw METAR is the most common format in the world for the transmission of observational weather data. It is highly standardized through the International Civil Aviation Organization (ICAO), which allows it to be understood throughout most of the world.
   API Info
Data Provided by
https://www.checkwx.com/weather/EGTK
   © Info
CSS/SVG/PHP scripts were developed by weather34.com for use in the weather34 template © 2015-2019

Guide Info provided by Metar-Wikipedia